Aviation Digital Data Service (ADDS)

Output produced by METARs form (0556 UTC 08 February 2016)
found at http://aviationweather.gov/adds/metars/
 
KCLT 080539Z 0806/0906 24003KT P6SM FEW250 
     FM081400 19004KT P6SM SCT100 
     FM081700 21010G18KT P6SM FEW040 BKN060 OVC080 
     PROB30 0819/0823 4SM -SHRA OVC035 
     FM090000 25007KT P6SM BKN070